createdAt,value
2023-04-22T00:01:16.680Z,100209.22
2023-04-22T00:04:02.625Z,100210.94
2023-04-22T00:06:48.076Z,100204.00
2023-04-22T00:09:33.726Z,100198.81
2023-04-22T00:12:18.829Z,100211.78
2023-04-22T00:15:05.171Z,100214.38
2023-04-22T00:17:50.750Z,100223.03
2023-04-22T00:20:35.737Z,100217.81
2023-04-22T00:23:20.641Z,100221.28
2023-04-22T00:26:06.055Z,100218.69
2023-04-22T00:28:51.338Z,100208.31
2023-04-22T00:31:36.385Z,100214.34
2023-04-22T00:34:21.563Z,100201.38
2023-04-22T00:37:06.520Z,100196.09
2023-04-22T00:39:51.898Z,100199.50
2023-04-22T00:42:37.650Z,100200.34
2023-04-22T00:45:23.002Z,100215.91
2023-04-22T00:48:08.370Z,100205.50
2023-04-22T00:50:53.742Z,100209.72
2023-04-22T00:53:38.718Z,100211.44
2023-04-22T00:56:26.330Z,100206.28
2023-04-22T00:59:12.531Z,100202.84
2023-04-22T01:01:57.967Z,100201.00
2023-04-22T01:04:43.429Z,100199.22
2023-04-22T01:07:28.585Z,100194.91
2023-04-22T01:10:13.720Z,100200.16
2023-04-22T01:12:58.687Z,100198.31
2023-04-22T01:15:44.181Z,100203.38
2023-04-22T01:18:29.748Z,100200.75
2023-04-22T01:21:14.754Z,100203.25
2023-04-22T01:24:01.563Z,100208.44
2023-04-22T01:26:48.216Z,100198.94
2023-04-22T01:29:33.817Z,100195.41
2023-04-22T01:32:19.057Z,100194.41
2023-04-22T01:35:04.432Z,100195.22
2023-04-22T01:37:49.398Z,100201.22
2023-04-22T01:40:34.723Z,100204.72
2023-04-22T01:43:20.166Z,100198.66
2023-04-22T01:46:06.405Z,100197.84
2023-04-22T01:48:51.725Z,100198.72
2023-04-22T01:51:36.752Z,100190.69
2023-04-22T01:54:21.861Z,100183.78
2023-04-22T01:57:12.028Z,100185.44
2023-04-22T01:59:57.248Z,100188.97
2023-04-22T02:02:42.666Z,100194.03
2023-04-22T02:05:27.921Z,100199.31
2023-04-22T02:08:12.809Z,100201.19
2023-04-22T02:10:57.657Z,100184.03
2023-04-22T02:13:42.650Z,100181.25
2023-04-22T02:16:28.029Z,100187.38
2023-04-22T02:19:13.485Z,100182.28
2023-04-22T02:21:59.040Z,100181.44
2023-04-22T02:24:44.190Z,100175.28
2023-04-22T02:27:29.777Z,100167.59
2023-04-22T02:30:15.047Z,100161.59
2023-04-22T02:32:59.871Z,100171.16
2023-04-22T02:35:45.467Z,100169.44
2023-04-22T02:38:30.555Z,100156.59
2023-04-22T02:41:15.361Z,100155.72
2023-04-22T02:44:00.783Z,100141.06
2023-04-22T02:46:46.057Z,100128.94
2023-04-22T02:49:31.248Z,100129.75
2023-04-22T02:52:16.190Z,100130.59
2023-04-22T02:55:01.660Z,100118.56
2023-04-22T02:57:46.643Z,100122.00
2023-04-22T03:00:32.014Z,100110.00
2023-04-22T03:03:17.528Z,100111.75
2023-04-22T03:06:02.665Z,100100.50
2023-04-22T03:08:48.133Z,100091.88
2023-04-22T03:11:33.357Z,100085.06
2023-04-22T03:14:18.635Z,100085.13
2023-04-22T03:17:04.035Z,100064.41
2023-04-22T03:19:49.420Z,100062.66
2023-04-22T03:22:34.188Z,100064.41
2023-04-22T03:25:19.782Z,100067.81
2023-04-22T03:28:05.003Z,100073.00
2023-04-22T03:30:50.490Z,100071.28
2023-04-22T03:33:35.354Z,100069.50
2023-04-22T03:36:20.326Z,100068.59
2023-04-22T03:39:05.855Z,100078.09
2023-04-22T03:41:51.056Z,100075.47
2023-04-22T03:44:36.063Z,100094.50
2023-04-22T03:47:21.376Z,100088.53
2023-04-22T03:50:07.324Z,100092.88
2023-04-22T03:52:52.815Z,100082.53
2023-04-22T03:55:38.061Z,100085.97
2023-04-22T03:58:23.313Z,100083.28
2023-04-22T04:01:08.837Z,100085.88
2023-04-22T04:03:54.416Z,100090.16
2023-04-22T04:06:39.666Z,100082.38
2023-04-22T04:09:24.655Z,100088.50
2023-04-22T04:12:09.855Z,100072.91
2023-04-22T04:14:55.086Z,100070.34
2023-04-22T04:17:40.222Z,100066.88
2023-04-22T04:20:25.543Z,100078.13
2023-04-22T04:23:10.888Z,100076.44
2023-04-22T04:25:56.321Z,100074.72
2023-04-22T04:28:41.643Z,100076.47
2023-04-22T04:31:28.466Z,100080.81
2023-04-22T04:34:13.758Z,100083.38
2023-04-22T04:36:59.249Z,100077.34
2023-04-22T04:39:44.715Z,100073.09
2023-04-22T04:42:30.013Z,100070.50
2023-04-22T04:45:15.347Z,100067.91
2023-04-22T04:48:00.646Z,100069.63
2023-04-22T04:50:46.291Z,100061.84
2023-04-22T04:53:32.446Z,100063.63
2023-04-22T04:56:17.760Z,100074.81
2023-04-22T04:59:03.162Z,100082.59
2023-04-22T05:01:48.567Z,100082.53
2023-04-22T05:04:33.820Z,100080.78
2023-04-22T05:07:19.242Z,100086.81
2023-04-22T05:10:04.883Z,100080.78
2023-04-22T05:12:50.378Z,100081.72
2023-04-22T05:15:35.768Z,100071.38
2023-04-22T05:18:21.752Z,100067.06
2023-04-22T05:21:07.186Z,100060.22
2023-04-22T05:23:52.302Z,100061.09
2023-04-22T05:26:37.806Z,100068.88
2023-04-22T05:29:22.913Z,100057.63
2023-04-22T05:32:08.562Z,100056.84
2023-04-22T05:34:53.799Z,100048.22
2023-04-22T05:37:39.223Z,100045.66
2023-04-22T05:40:24.462Z,100038.81
2023-04-22T05:43:09.747Z,100028.38
2023-04-22T05:45:54.722Z,100025.84
2023-04-22T05:48:40.048Z,100026.72
2023-04-22T05:51:25.439Z,100031.03
2023-04-22T05:54:10.792Z,100024.13
2023-04-22T05:56:56.467Z,100018.94
2023-04-22T05:59:42.260Z,100015.47
2023-04-22T06:02:27.898Z,100008.56
2023-04-22T06:05:13.296Z,100016.34
2023-04-22T06:07:58.491Z,100015.47
2023-04-22T06:10:43.765Z,100003.34
2023-04-22T06:13:29.189Z,100000.75
2023-04-22T06:16:14.681Z,99990.34
2023-04-22T06:19:00.106Z,99985.09
2023-04-22T06:21:45.354Z,99972.06
2023-04-22T06:24:30.842Z,99966.81
2023-04-22T06:27:16.156Z,99965.03
2023-04-22T06:30:01.598Z,99958.13
2023-04-22T06:32:47.243Z,99936.38
2023-04-22T06:35:32.549Z,99939.72
2023-04-22T06:38:17.794Z,99948.41
2023-04-22T06:41:03.078Z,99944.09
2023-04-22T06:43:48.434Z,99957.03
2023-04-22T06:46:33.915Z,99962.19
2023-04-22T06:49:19.323Z,99964.75
2023-04-22T06:52:05.695Z,99949.16
2023-04-22T06:54:51.056Z,99939.59
2023-04-22T06:57:36.457Z,99952.50
2023-04-22T07:00:21.724Z,99944.69
2023-04-22T07:03:07.025Z,99950.72
2023-04-22T07:05:52.327Z,99953.28
2023-04-22T07:08:37.545Z,99966.25
2023-04-22T07:11:23.049Z,99963.66
2023-04-22T07:14:08.205Z,99979.22
2023-04-22T07:16:53.937Z,99951.44
2023-04-22T07:19:39.574Z,99950.47
2023-04-22T07:22:24.811Z,99933.00
2023-04-22T07:25:10.164Z,99940.69
2023-04-22T07:27:55.269Z,99923.44
2023-04-22T07:30:40.652Z,99933.72
2023-04-22T07:33:25.987Z,99926.72
2023-04-22T07:36:11.409Z,99929.28
2023-04-22T07:38:56.415Z,99918.66
2023-04-22T07:41:41.698Z,99925.31
2023-04-22T07:44:27.120Z,99911.94
2023-04-22T07:47:12.711Z,99903.09
2023-04-22T07:49:57.895Z,99884.56
2023-04-22T07:52:43.375Z,99897.25
2023-04-22T07:55:28.750Z,99886.47
2023-04-22T07:58:14.224Z,99875.31
2023-04-22T08:00:59.664Z,99867.34
2023-04-22T08:03:45.248Z,99862.63
2023-04-22T08:06:30.632Z,99854.78
2023-04-22T08:09:16.047Z,99866.09
2023-04-22T08:12:01.557Z,99867.44
2023-04-22T08:14:46.540Z,99860.13
2023-04-22T08:17:32.208Z,99848.97
2023-04-22T08:20:21.769Z,99824.50
2023-04-22T08:23:07.082Z,99831.69
2023-04-22T08:25:52.473Z,99819.31
2023-04-22T08:28:38.210Z,99814.56
2023-04-22T08:31:23.436Z,99842.94
2023-04-22T08:34:13.487Z,99799.97
2023-04-22T08:36:58.992Z,99802.38
2023-04-22T08:39:44.104Z,99782.09
2023-04-22T08:42:29.623Z,99777.16
2023-04-22T08:45:15.521Z,99765.16
2023-04-22T08:48:02.479Z,99774.75
2023-04-22T08:50:48.422Z,99754.50
2023-04-22T08:53:34.070Z,99762.84
2023-04-22T08:56:20.548Z,99742.69
2023-04-22T08:59:05.733Z,99742.28
2023-04-22T09:01:53.090Z,99742.44
2023-04-22T09:04:38.420Z,99785.00
2023-04-22T09:07:26.784Z,99771.59
2023-04-22T09:10:11.861Z,99724.81
2023-04-22T09:12:58.878Z,99776.25
2023-04-22T09:15:44.215Z,99719.63
2023-04-22T09:18:29.658Z,99724.94
2023-04-22T09:21:15.034Z,99706.34
2023-04-22T09:24:00.524Z,99744.91
2023-04-22T09:26:46.257Z,99750.50
2023-04-22T09:29:31.610Z,99722.03
2023-04-22T09:32:17.612Z,99741.47
2023-04-22T09:35:02.744Z,99717.41
2023-04-22T09:37:51.788Z,99745.13
2023-04-22T09:40:40.972Z,99736.38
2023-04-22T09:43:26.342Z,99741.31
2023-04-22T09:46:11.660Z,99711.31
2023-04-22T09:48:58.819Z,99721.50
2023-04-22T09:51:44.078Z,99726.28
2023-04-22T09:54:29.256Z,99719.38
2023-04-22T09:57:14.659Z,99715.44
2023-04-22T09:59:59.991Z,99715.22
2023-04-22T10:02:45.552Z,99679.78
2023-04-22T10:05:31.293Z,99683.28
2023-04-22T10:08:17.025Z,99681.34
2023-04-22T10:11:02.027Z,99644.09
2023-04-22T10:13:47.311Z,99650.09
2023-04-22T10:16:34.714Z,99643.84
2023-04-22T10:19:21.962Z,99641.09
2023-04-22T10:22:10.843Z,99646.75
2023-04-22T10:24:56.074Z,99639.19
2023-04-22T10:27:41.882Z,99672.06
2023-04-22T10:30:29.224Z,99632.59
2023-04-22T10:33:20.786Z,99657.25
2023-04-22T10:36:12.275Z,99651.72
2023-04-22T10:38:57.602Z,99632.88
2023-04-22T10:42:08.614Z,99620.59
2023-04-22T10:45:00.871Z,99603.00
2023-04-22T10:47:46.087Z,99610.25
2023-04-22T10:50:32.084Z,99577.81
2023-04-22T10:53:36.776Z,99571.94
2023-04-22T10:56:21.769Z,99585.00
2023-04-22T10:59:16.763Z,99561.50
2023-04-22T11:02:03.375Z,99560.03
2023-04-22T11:04:49.113Z,99554.47
2023-04-22T11:07:34.360Z,99556.91
2023-04-22T11:10:32.036Z,99537.50
2023-04-22T11:13:21.752Z,99531.94
2023-04-22T11:16:08.775Z,99521.31
2023-04-22T11:19:11.468Z,99515.41
2023-04-22T11:21:56.947Z,99530.75
2023-04-22T11:24:54.303Z,99547.47
2023-04-22T11:27:41.245Z,99538.16
2023-04-22T11:30:28.488Z,99532.94
2023-04-22T11:33:15.157Z,99529.41
2023-04-22T11:36:00.729Z,99553.53
2023-04-22T11:39:08.646Z,99536.00
2023-04-22T11:41:53.850Z,99541.63
2023-04-22T11:44:39.693Z,99545.28
2023-04-22T11:47:25.015Z,99542.09
2023-04-22T11:50:11.837Z,99564.44
2023-04-22T11:53:15.633Z,99546.06
2023-04-22T11:56:02.788Z,99540.44
2023-04-22T11:58:47.988Z,99523.75
2023-04-22T12:01:33.305Z,99513.94
2023-04-22T12:04:21.749Z,99530.03
2023-04-22T12:07:07.463Z,99485.25
2023-04-22T12:09:56.403Z,99496.59
2023-04-22T12:12:41.893Z,99495.97
2023-04-22T12:15:27.096Z,99481.66
2023-04-22T12:18:12.028Z,99465.88
2023-04-22T12:21:06.782Z,99477.19
2023-04-22T12:23:54.759Z,99473.06
2023-04-22T12:26:39.895Z,99440.31
2023-04-22T12:29:33.335Z,99448.22
2023-04-22T12:32:20.382Z,99439.19
2023-04-22T12:35:05.604Z,99445.25
2023-04-22T12:37:52.341Z,99433.97
2023-04-22T12:40:37.580Z,99436.16
2023-04-22T12:43:22.898Z,99462.56
2023-04-22T12:46:09.078Z,99473.84
2023-04-22T12:48:54.676Z,99467.44
2023-04-22T12:51:40.200Z,99458.81
2023-04-22T12:54:25.478Z,99467.75
2023-04-22T12:57:10.493Z,99498.34
2023-04-22T12:59:55.865Z,99474.94
2023-04-22T13:02:42.690Z,99496.06
2023-04-22T13:05:28.238Z,99475.63
2023-04-22T13:08:13.443Z,99466.06
2023-04-22T13:10:58.792Z,99449.56
2023-04-22T13:13:44.200Z,99445.69
2023-04-22T13:16:29.764Z,99453.03
2023-04-22T13:19:14.828Z,99449.69
2023-04-22T13:21:59.911Z,99439.88
2023-04-22T13:24:45.565Z,99458.00
2023-04-22T13:27:30.635Z,99453.28
2023-04-22T13:30:16.043Z,99459.84
2023-04-22T13:33:01.493Z,99462.63
2023-04-22T13:35:46.871Z,99466.06
2023-04-22T13:38:32.303Z,99460.47
2023-04-22T13:41:17.228Z,99465.75
2023-04-22T13:44:02.846Z,99463.22
2023-04-22T13:46:48.229Z,99423.03
2023-04-22T13:49:33.697Z,99437.69
2023-04-22T13:52:19.078Z,99399.09
2023-04-22T13:55:04.746Z,99396.66
2023-04-22T13:57:51.266Z,99396.06
2023-04-22T14:00:36.291Z,99395.94
2023-04-22T14:03:22.019Z,99402.72
2023-04-22T14:06:07.656Z,99416.06
2023-04-22T14:08:52.748Z,99413.19
2023-04-22T14:11:37.734Z,99442.53
2023-04-22T14:14:23.052Z,99412.06
2023-04-22T14:17:08.256Z,99434.84
2023-04-22T14:19:53.503Z,99422.63
2023-04-22T14:22:38.919Z,99413.06
2023-04-22T14:25:24.562Z,99397.38
2023-04-22T14:28:10.552Z,99408.97
2023-04-22T14:30:55.725Z,99420.16
2023-04-22T14:33:40.815Z,99433.84
2023-04-22T14:36:25.955Z,99423.38
2023-04-22T14:39:10.957Z,99434.06
2023-04-22T14:41:56.352Z,99447.16
2023-04-22T14:44:42.704Z,99458.47
2023-04-22T14:47:28.156Z,99460.13
2023-04-22T14:50:13.503Z,99449.00
2023-04-22T14:52:58.804Z,99451.19
2023-04-22T14:55:43.781Z,99456.84
2023-04-22T14:58:29.253Z,99474.94
2023-04-22T15:01:14.677Z,99465.44
2023-04-22T15:04:00.317Z,99447.16
2023-04-22T15:06:45.537Z,99463.19
2023-04-22T15:09:31.042Z,99467.91
2023-04-22T15:12:17.030Z,99474.31
2023-04-22T15:15:02.333Z,99480.94
2023-04-22T15:17:47.547Z,99485.44
2023-04-22T15:20:32.464Z,99490.13
2023-04-22T15:23:17.838Z,99493.84
2023-04-22T15:26:02.998Z,99488.88
2023-04-22T15:28:48.477Z,99475.97
2023-04-22T15:31:33.594Z,99492.41
2023-04-22T15:34:18.847Z,99496.84
2023-04-22T15:37:04.309Z,99497.91
2023-04-22T15:39:49.587Z,99499.13
2023-04-22T15:42:34.908Z,99511.28
2023-04-22T15:45:20.317Z,99523.84
2023-04-22T15:48:05.825Z,99525.06
2023-04-22T15:50:51.026Z,99519.34
2023-04-22T15:53:36.989Z,99510.34
2023-04-22T15:56:22.005Z,99526.47
2023-04-22T15:59:06.908Z,99549.47
2023-04-22T16:01:52.247Z,99561.97
2023-04-22T16:04:37.687Z,99599.28
2023-04-22T16:07:22.959Z,99610.09
2023-04-22T16:10:09.022Z,99625.50
2023-04-22T16:12:53.944Z,99641.00
2023-04-22T16:15:38.922Z,99640.28
2023-04-22T16:18:24.983Z,99642.09
2023-04-22T16:21:10.062Z,99674.25
2023-04-22T16:23:55.345Z,99687.66
2023-04-22T16:26:40.180Z,99704.13
2023-04-22T16:29:25.699Z,99721.13
2023-04-22T16:32:11.581Z,99727.44
2023-04-22T16:34:57.133Z,99745.44
2023-04-22T16:37:43.171Z,99769.41
2023-04-22T16:40:28.542Z,99780.28
2023-04-22T16:43:13.627Z,99815.97
2023-04-22T16:45:59.228Z,99805.09
2023-04-22T16:48:44.271Z,99825.66
2023-04-22T16:51:29.607Z,99824.88
2023-04-22T16:54:14.918Z,99833.09
2023-04-22T16:56:59.768Z,99832.28
2023-04-22T16:59:45.103Z,99839.75
2023-04-22T17:02:30.684Z,99839.09
2023-04-22T17:05:15.965Z,99833.03
2023-04-22T17:08:01.255Z,99837.50
2023-04-22T17:10:47.095Z,99837.84
2023-04-22T17:13:32.306Z,99840.44
2023-04-22T17:16:18.118Z,99844.22
2023-04-22T17:19:03.373Z,99839.84
2023-04-22T17:21:48.294Z,99861.84
2023-04-22T17:24:33.783Z,99862.81
2023-04-22T17:27:19.094Z,99854.84
2023-04-22T17:30:04.493Z,99850.38
2023-04-22T17:32:49.836Z,99849.75
2023-04-22T17:35:35.042Z,99860.63
2023-04-22T17:38:20.254Z,99859.16
2023-04-22T17:41:05.654Z,99865.00
2023-04-22T17:43:51.391Z,99878.25
2023-04-22T17:46:36.568Z,99864.66
2023-04-22T17:49:21.870Z,99876.97
2023-04-22T17:52:07.194Z,99865.50
2023-04-22T17:54:52.747Z,99861.19
2023-04-22T17:57:38.115Z,99856.66
2023-04-22T18:00:36.652Z,99862.16
2023-04-22T18:03:22.807Z,99857.88
2023-04-22T18:06:08.361Z,99855.25
2023-04-22T18:08:55.922Z,99849.09
2023-04-22T18:11:41.720Z,99854.06
2023-04-22T18:14:26.785Z,99850.47
2023-04-22T18:17:11.953Z,99858.38
2023-04-22T18:20:09.881Z,99863.53
2023-04-22T18:22:59.676Z,99857.44
2023-04-22T18:25:45.100Z,99868.25
2023-04-22T18:28:30.627Z,99871.03
2023-04-22T18:31:16.032Z,99878.88
2023-04-22T18:34:01.414Z,99883.19
2023-04-22T18:36:46.829Z,99893.47
2023-04-22T18:39:32.386Z,99893.53
2023-04-22T18:42:18.281Z,99900.53
2023-04-22T18:45:04.755Z,99902.16
2023-04-22T18:47:50.229Z,99901.47
2023-04-22T18:50:35.501Z,99905.09
2023-04-22T18:53:21.047Z,99908.38
2023-04-22T18:56:06.418Z,99909.41
2023-04-22T18:58:51.789Z,99920.75
2023-04-22T19:01:37.276Z,99920.69
2023-04-22T19:04:22.812Z,99919.97
2023-04-22T19:07:13.506Z,99929.00
2023-04-22T19:10:02.108Z,99939.72
2023-04-22T19:12:47.629Z,99945.78
2023-04-22T19:15:32.896Z,99943.25
2023-04-22T19:18:18.300Z,99957.94
2023-04-22T19:21:03.920Z,99958.09
2023-04-22T19:23:49.682Z,99962.44
2023-04-22T19:26:35.279Z,99966.88
2023-04-22T19:29:20.469Z,99977.66
2023-04-22T19:32:05.870Z,99975.19
2023-04-22T19:34:50.862Z,99987.47
2023-04-22T19:37:36.197Z,99997.97
2023-04-22T19:40:21.653Z,99984.41
2023-04-22T19:43:07.882Z,99994.00
2023-04-22T19:45:52.953Z,100003.78
2023-04-22T19:48:38.769Z,100003.00
2023-04-22T19:51:24.468Z,100008.22
2023-04-22T19:54:11.233Z,100010.91
2023-04-22T19:56:56.747Z,100004.03
2023-04-22T19:59:43.365Z,100000.66
2023-04-22T20:02:28.938Z,100016.25
2023-04-22T20:05:14.832Z,100012.91
2023-04-22T20:08:00.545Z,100013.72
2023-04-22T20:10:47.865Z,100012.00
2023-04-22T20:14:16.254Z,100006.88
2023-04-22T20:17:16.781Z,100001.66
2023-04-22T20:20:13.929Z,100006.81
2023-04-22T20:23:01.767Z,100001.59
2023-04-22T20:25:47.175Z,99996.50
2023-04-22T20:28:44.715Z,100002.69
2023-04-22T20:31:30.327Z,99994.88
2023-04-22T20:34:15.503Z,99992.34
2023-04-22T20:37:01.587Z,99988.91
2023-04-22T20:43:32.189Z,99994.19
2023-04-22T20:46:17.670Z,99988.97
2023-04-22T20:49:03.161Z,99988.97
2023-04-22T20:51:48.589Z,99985.50
2023-04-22T20:54:35.313Z,99987.19
2023-04-22T20:57:21.223Z,99985.53
2023-04-22T21:00:07.326Z,99993.41
2023-04-22T21:02:53.103Z,99992.50
2023-04-22T21:05:38.668Z,99989.03
2023-04-22T21:08:25.201Z,99985.53
2023-04-22T21:11:10.772Z,99984.59
2023-04-22T21:13:55.939Z,99978.53
2023-04-22T21:16:43.188Z,99977.72
2023-04-22T21:19:35.163Z,99983.84
2023-04-22T21:22:21.542Z,99993.31
2023-04-22T21:25:07.495Z,99986.47
2023-04-22T21:27:53.310Z,99985.53
2023-04-22T21:30:39.076Z,99985.50
2023-04-22T21:33:24.106Z,99983.75
2023-04-22T21:36:09.571Z,99986.25
2023-04-22T21:38:54.914Z,99982.72
2023-04-22T21:41:40.713Z,99972.41
2023-04-22T21:44:26.191Z,99975.03
2023-04-22T21:47:11.654Z,99972.34
2023-04-22T21:49:57.216Z,99969.75
2023-04-22T21:52:42.686Z,99962.03
2023-04-22T21:55:27.925Z,99973.31
2023-04-22T21:58:13.102Z,99963.75
2023-04-22T22:00:58.141Z,99955.06
2023-04-22T22:03:43.722Z,99963.75
2023-04-22T22:06:30.737Z,99962.03
2023-04-22T22:09:16.348Z,99956.84
2023-04-22T22:12:01.356Z,99957.75
2023-04-22T22:14:46.886Z,99962.09
2023-04-22T22:17:32.372Z,99969.91
2023-04-22T22:20:17.600Z,99987.28
2023-04-22T22:23:03.052Z,99984.75
2023-04-22T22:25:49.291Z,100006.38
2023-04-22T22:28:34.648Z,100006.44
2023-04-22T22:31:20.016Z,100013.44
2023-04-22T22:34:05.337Z,100004.03
2023-04-22T22:36:50.695Z,100012.78
2023-04-22T22:39:36.655Z,100024.94
2023-04-22T22:42:22.244Z,100028.34
2023-04-22T22:45:08.235Z,100030.06
2023-04-22T22:47:53.541Z,100034.38
2023-04-22T22:50:38.836Z,100031.78
2023-04-22T22:53:24.190Z,100038.75
2023-04-22T22:56:09.768Z,100032.66
2023-04-22T22:58:55.083Z,100031.84
2023-04-22T23:01:40.484Z,100040.50
2023-04-22T23:04:27.526Z,100040.50
2023-04-22T23:07:13.156Z,100038.78
2023-04-22T23:09:58.697Z,100039.66
2023-04-22T23:12:44.031Z,100048.34
2023-04-22T23:15:29.483Z,100043.97
2023-04-22T23:18:16.705Z,100053.53
2023-04-22T23:21:02.514Z,100049.19
2023-04-22T23:23:49.303Z,100051.78
2023-04-22T23:26:34.906Z,100058.72
2023-04-22T23:29:20.517Z,100050.06
2023-04-22T23:32:07.540Z,100053.53
2023-04-22T23:34:53.685Z,100060.44
2023-04-22T23:37:42.956Z,100050.94
2023-04-22T23:40:27.993Z,100055.25
2023-04-22T23:43:13.631Z,100049.19
2023-04-22T23:45:58.735Z,100050.06
2023-04-22T23:48:43.850Z,100047.47
2023-04-22T23:51:28.884Z,100056.09
2023-04-22T23:54:14.203Z,100049.19
2023-04-22T23:57:00.022Z,100050.06
2023-04-22T23:59:45.526Z,100055.25
